createdAt,value
2022-09-15T00:00:21.675Z,949.2
2022-09-15T00:01:23.531Z,949.2
2022-09-15T00:02:25.907Z,949.2
2022-09-15T00:03:27.743Z,949.3
2022-09-15T00:04:29.338Z,949.3
2022-09-15T00:05:31.415Z,949.3
2022-09-15T00:06:33.192Z,949.3
2022-09-15T00:07:34.852Z,949.3
2022-09-15T00:08:36.416Z,949.3
2022-09-15T00:09:37.960Z,949.2
2022-09-15T00:10:39.745Z,949.2
2022-09-15T00:11:41.285Z,949.2
2022-09-15T00:12:42.912Z,949.2
2022-09-15T00:13:45.072Z,949.2
2022-09-15T00:14:46.902Z,949.2
2022-09-15T00:15:48.498Z,949.2
2022-09-15T00:16:50.344Z,949.3
2022-09-15T00:17:52.252Z,949.3
2022-09-15T00:18:53.924Z,949.3
2022-09-15T00:19:55.555Z,949.3
2022-09-15T00:20:57.634Z,949.2
2022-09-15T00:21:59.166Z,949.2
2022-09-15T00:23:00.818Z,949.2
2022-09-15T00:24:02.379Z,949.2
2022-09-15T00:25:03.935Z,949.2
2022-09-15T00:26:05.579Z,949.3
2022-09-15T00:27:07.215Z,949.3
2022-09-15T00:28:08.756Z,949.3
2022-09-15T00:29:10.370Z,949.3
2022-09-15T00:30:11.909Z,949.4
2022-09-15T00:31:13.904Z,949.3
2022-09-15T00:32:15.707Z,949.3
2022-09-15T00:33:17.356Z,949.3
2022-09-15T00:34:18.914Z,949.3
2022-09-15T00:35:20.546Z,949.3
2022-09-15T00:36:22.416Z,949.3
2022-09-15T00:37:24.175Z,949.3
2022-09-15T00:38:25.728Z,949.3
2022-09-15T00:39:27.259Z,949.2
2022-09-15T00:40:29.109Z,949.3
2022-09-15T00:41:30.895Z,949.3
2022-09-15T00:42:32.721Z,949.2
2022-09-15T00:43:34.255Z,949.2
2022-09-15T00:44:35.773Z,949.3
2022-09-15T00:45:37.803Z,949.2
2022-09-15T00:46:39.573Z,949.3
2022-09-15T00:47:41.347Z,949.3
2022-09-15T00:48:42.910Z,949.2
2022-09-15T00:49:44.500Z,949.2
2022-09-15T00:50:46.140Z,949.2
2022-09-15T00:51:48.114Z,949.3
2022-09-15T00:52:49.763Z,949.3
2022-09-15T00:53:51.970Z,949.3
2022-09-15T00:54:53.993Z,949.3
2022-09-15T00:55:55.638Z,949.4
2022-09-15T00:56:57.260Z,949.4
2022-09-15T00:57:58.870Z,949.4
2022-09-15T00:59:00.422Z,949.4
2022-09-15T01:00:02.123Z,949.4
2022-09-15T01:01:03.952Z,949.4
2022-09-15T01:02:06.057Z,949.4
2022-09-15T01:03:08.040Z,949.4
2022-09-15T01:04:09.576Z,949.3
2022-09-15T01:05:11.243Z,949.3
2022-09-15T01:06:12.871Z,949.3
2022-09-15T01:07:14.837Z,949.2
2022-09-15T01:08:16.512Z,949.2
2022-09-15T01:09:18.544Z,949.3
2022-09-15T01:10:20.087Z,949.2
2022-09-15T01:11:21.845Z,949.3
2022-09-15T01:12:23.372Z,949.3
2022-09-15T01:13:24.913Z,949.3
2022-09-15T01:14:26.474Z,949.3
2022-09-15T01:15:28.010Z,949.3
2022-09-15T01:16:29.989Z,949.3
2022-09-15T01:17:31.834Z,949.3
2022-09-15T01:18:33.365Z,949.3
2022-09-15T01:19:35.218Z,949.3
2022-09-15T01:20:36.776Z,949.3
2022-09-15T01:21:38.474Z,949.3
2022-09-15T01:22:40.345Z,949.3
2022-09-15T01:23:42.083Z,949.3
2022-09-15T01:24:43.755Z,949.3
2022-09-15T01:25:45.475Z,949.2
2022-09-15T01:26:47.129Z,949.2
2022-09-15T01:27:48.786Z,949.2
2022-09-15T01:28:50.438Z,949.2
2022-09-15T01:29:51.982Z,949.2
2022-09-15T01:30:53.632Z,949.2
2022-09-15T01:31:55.377Z,949.2
2022-09-15T01:32:57.054Z,949.2
2022-09-15T01:33:58.585Z,949.2
2022-09-15T01:35:00.122Z,949.2
2022-09-15T01:36:01.953Z,949.2
2022-09-15T01:37:03.567Z,949.2
2022-09-15T01:38:05.321Z,949.3
2022-09-15T01:39:06.883Z,949.2
2022-09-15T01:40:08.732Z,949.2
2022-09-15T01:41:10.589Z,949.2
2022-09-15T01:42:12.126Z,949.2
2022-09-15T01:43:13.855Z,949.2
2022-09-15T01:44:15.463Z,949.2
2022-09-15T01:45:17.019Z,949.2
2022-09-15T01:46:19.019Z,949.2
2022-09-15T01:47:20.725Z,949.2
2022-09-15T01:48:22.417Z,949.2
2022-09-15T01:49:23.999Z,949.3
2022-09-15T01:50:25.593Z,949.3
2022-09-15T01:51:27.265Z,949.3
2022-09-15T01:52:28.973Z,949.3
2022-09-15T01:53:30.816Z,949.3
2022-09-15T01:54:32.359Z,949.3
2022-09-15T01:55:34.007Z,949.3
2022-09-15T01:56:35.752Z,949.2
2022-09-15T01:57:37.407Z,949.2
2022-09-15T01:58:39.066Z,949.2
2022-09-15T01:59:40.667Z,949.2
2022-09-15T02:00:42.555Z,949.2
2022-09-15T02:01:44.873Z,949.2
2022-09-15T02:02:46.769Z,949.2
2022-09-15T02:03:48.386Z,949.2
2022-09-15T02:04:50.059Z,949.2
2022-09-15T02:05:51.796Z,949.2
2022-09-15T02:06:53.406Z,949.2
2022-09-15T02:07:55.063Z,949.3
2022-09-15T02:08:56.929Z,949.1
2022-09-15T02:09:58.695Z,949.1
2022-09-15T02:11:00.336Z,949.1
2022-09-15T02:12:01.869Z,949.1
2022-09-15T02:13:03.530Z,949.1
2022-09-15T02:14:05.179Z,949.1
2022-09-15T02:15:06.822Z,949.1
2022-09-15T02:16:08.539Z,949.1
2022-09-15T02:17:10.397Z,949.1
2022-09-15T02:18:12.168Z,949.1
2022-09-15T02:19:13.792Z,949.1
2022-09-15T02:20:15.335Z,949.1
2022-09-15T02:21:17.158Z,949.1
2022-09-15T02:22:18.879Z,949
2022-09-15T02:23:20.451Z,949
2022-09-15T02:24:22.231Z,949.1
2022-09-15T02:25:23.775Z,949
2022-09-15T02:26:25.393Z,949.1
2022-09-15T02:27:27.080Z,949
2022-09-15T02:28:28.726Z,949
2022-09-15T02:29:30.446Z,949
2022-09-15T02:30:32.016Z,949
2022-09-15T02:31:33.871Z,949
2022-09-15T02:32:35.705Z,949
2022-09-15T02:33:37.349Z,949
2022-09-15T02:34:38.997Z,949.1
2022-09-15T02:35:40.743Z,949.1
2022-09-15T02:36:42.287Z,949.1
2022-09-15T02:37:44.041Z,949
2022-09-15T02:38:45.782Z,949
2022-09-15T02:39:47.735Z,949
2022-09-15T02:40:49.489Z,948.9
2022-09-15T02:41:51.099Z,949
2022-09-15T02:42:52.762Z,949
2022-09-15T02:43:54.380Z,948.9
2022-09-15T02:44:56.116Z,949
2022-09-15T02:45:57.944Z,949
2022-09-15T02:46:59.664Z,948.9
2022-09-15T02:48:01.311Z,949
2022-09-15T02:49:02.950Z,949
2022-09-15T02:50:04.520Z,949
2022-09-15T02:51:06.147Z,948.9
2022-09-15T02:52:07.674Z,949
2022-09-15T02:53:09.268Z,949
2022-09-15T02:54:10.979Z,949
2022-09-15T02:55:12.908Z,949
2022-09-15T02:56:14.461Z,949.1
2022-09-15T02:57:16.125Z,949.1
2022-09-15T02:58:17.769Z,949
2022-09-15T02:59:19.390Z,949
2022-09-15T03:00:21.056Z,949
2022-09-15T03:01:22.948Z,949
2022-09-15T03:02:25.342Z,949
2022-09-15T03:03:27.185Z,949
2022-09-15T03:04:28.723Z,949
2022-09-15T03:05:30.269Z,949
2022-09-15T03:06:31.962Z,949.1
2022-09-15T03:07:33.696Z,949.1
2022-09-15T03:08:35.276Z,949
2022-09-15T03:09:36.868Z,949
2022-09-15T03:10:38.686Z,949
2022-09-15T03:11:40.485Z,949
2022-09-15T03:12:42.311Z,949
2022-09-15T03:13:43.922Z,949
2022-09-15T03:14:45.464Z,949
2022-09-15T03:15:47.064Z,949.1
2022-09-15T03:16:48.861Z,949.1
2022-09-15T03:17:50.566Z,949
2022-09-15T03:18:52.176Z,949.1
2022-09-15T03:19:53.803Z,949.1
2022-09-15T03:20:55.499Z,949.2
2022-09-15T03:21:57.142Z,949.2
2022-09-15T03:22:58.867Z,949.2
2022-09-15T03:24:00.568Z,949.2
2022-09-15T03:25:02.142Z,949.2
2022-09-15T03:26:03.901Z,949.3
2022-09-15T03:27:05.549Z,949.2
2022-09-15T03:28:07.299Z,949.3
2022-09-15T03:29:11.813Z,949.3
2022-09-15T03:30:13.381Z,949.2
2022-09-15T03:31:15.154Z,949.3
2022-09-15T03:32:16.866Z,949.3
2022-09-15T03:33:19.034Z,949.3
2022-09-15T03:34:20.566Z,949.3
2022-09-15T03:35:22.102Z,949.3
2022-09-15T03:36:23.631Z,949.3
2022-09-15T03:37:25.297Z,949.2
2022-09-15T03:38:26.844Z,949.2
2022-09-15T03:39:28.507Z,949.3
2022-09-15T03:40:30.367Z,949.3
2022-09-15T03:41:32.370Z,949.3
2022-09-15T03:42:33.907Z,949.3
2022-09-15T03:43:35.458Z,949.3
2022-09-15T03:44:37.195Z,949.3
2022-09-15T03:45:39.294Z,949.3
2022-09-15T03:46:41.007Z,949.3
2022-09-15T03:47:42.724Z,949.3
2022-09-15T03:48:44.402Z,949.3
2022-09-15T03:49:46.169Z,949.3
2022-09-15T03:50:47.727Z,949.3
2022-09-15T03:51:49.323Z,949.3
2022-09-15T03:52:54.508Z,949.3
2022-09-15T03:54:00.374Z,949.3
2022-09-15T03:55:02.184Z,949.3
2022-09-15T03:56:06.339Z,949.2
2022-09-15T03:57:08.212Z,949.2
2022-09-15T03:58:09.754Z,949.2
2022-09-15T03:59:11.391Z,949.2
2022-09-15T04:00:13.250Z,949.2
2022-09-15T04:01:15.150Z,949.2
2022-09-15T04:02:17.406Z,949.2
2022-09-15T04:03:19.072Z,949.2
2022-09-15T04:04:20.752Z,949.2
2022-09-15T04:05:22.417Z,949.2
2022-09-15T04:06:24.056Z,949.2
2022-09-15T04:07:25.701Z,949.2
2022-09-15T04:08:27.250Z,949.3
2022-09-15T04:09:28.974Z,949.3
2022-09-15T04:10:30.531Z,949.3
2022-09-15T04:11:32.376Z,949.3
2022-09-15T04:12:34.324Z,949.4
2022-09-15T04:13:35.862Z,949.3
2022-09-15T04:14:37.442Z,949.3
2022-09-15T04:15:39.069Z,949.3
2022-09-15T04:16:41.160Z,949.3
2022-09-15T04:17:43.062Z,949.3
2022-09-15T04:18:44.602Z,949.3
2022-09-15T04:19:46.263Z,949.2
2022-09-15T04:20:47.798Z,949.3
2022-09-15T04:21:49.644Z,949.2
2022-09-15T04:22:51.271Z,949.2
2022-09-15T04:23:53.340Z,949.2
2022-09-15T04:24:54.948Z,949.2
2022-09-15T04:25:56.501Z,949.2
2022-09-15T04:26:58.378Z,949.1
2022-09-15T04:28:00.227Z,949.1
2022-09-15T04:29:05.263Z,949.1
2022-09-15T04:30:07.020Z,949.1
2022-09-15T04:31:08.879Z,949.1
2022-09-15T04:32:13.583Z,949.1
2022-09-15T04:33:15.235Z,949.1
2022-09-15T04:34:16.876Z,949.1
2022-09-15T04:35:18.377Z,949.1
2022-09-15T04:36:19.926Z,949.1
2022-09-15T04:37:21.604Z,949.1
2022-09-15T04:38:23.145Z,949.1
2022-09-15T04:39:24.690Z,949.1
2022-09-15T04:40:26.562Z,949.2
2022-09-15T04:41:28.396Z,949.2
2022-09-15T04:42:30.138Z,949.1
2022-09-15T04:43:31.871Z,949.2
2022-09-15T04:44:33.413Z,949.2
2022-09-15T04:45:37.704Z,949.2
2022-09-15T04:46:39.602Z,949.2
2022-09-15T04:47:41.491Z,949.2
2022-09-15T04:48:43.268Z,949.2
2022-09-15T04:49:44.916Z,949.2
2022-09-15T04:50:46.562Z,949.2
2022-09-15T04:51:48.100Z,949.2
2022-09-15T04:52:49.748Z,949.2
2022-09-15T04:53:52.186Z,949.2
2022-09-15T04:54:54.023Z,949.2
2022-09-15T04:55:55.586Z,949.2
2022-09-15T04:56:57.157Z,949.2
2022-09-15T04:57:58.926Z,949.2
2022-09-15T04:59:04.607Z,949.2
2022-09-15T05:00:06.290Z,949.3
2022-09-15T05:01:08.377Z,949.3
2022-09-15T05:02:10.444Z,949.3
2022-09-15T05:03:12.374Z,949.3
2022-09-15T05:04:14.099Z,949.4
2022-09-15T05:05:15.754Z,949.3
2022-09-15T05:06:17.371Z,949.3
2022-09-15T05:07:19.035Z,949.3
2022-09-15T05:08:20.753Z,949.3
2022-09-15T05:09:22.438Z,949.3
2022-09-15T05:10:24.079Z,949.2
2022-09-15T05:11:25.785Z,949.2
2022-09-15T05:12:27.339Z,949.2
2022-09-15T05:13:28.973Z,949.2
2022-09-15T05:14:30.849Z,949.2
2022-09-15T05:15:32.389Z,949.2
2022-09-15T05:16:34.286Z,949.2
2022-09-15T05:17:36.208Z,949.2
2022-09-15T05:18:37.853Z,949.2
2022-09-15T05:19:39.363Z,949.2
2022-09-15T05:20:41.026Z,949.2
2022-09-15T05:21:42.881Z,949.1
2022-09-15T05:22:44.421Z,949.1
2022-09-15T05:23:46.192Z,949.1
2022-09-15T05:24:47.932Z,949.1
2022-09-15T05:25:49.574Z,949.1
2022-09-15T05:26:51.308Z,949.1
2022-09-15T05:27:52.975Z,949.1
2022-09-15T05:28:57.130Z,949.1
2022-09-15T05:30:40.597Z,949
2022-09-15T05:31:46.619Z,949
2022-09-15T05:32:48.339Z,949
2022-09-15T05:33:49.891Z,949
2022-09-15T05:34:51.580Z,949.1
2022-09-15T05:35:53.118Z,949.1
2022-09-15T05:36:54.775Z,949.1
2022-09-15T05:37:56.310Z,949
2022-09-15T05:38:58.072Z,949
2022-09-15T05:39:59.965Z,949
2022-09-15T05:41:01.960Z,949
2022-09-15T05:42:03.718Z,949
2022-09-15T05:43:05.396Z,948.9
2022-09-15T05:44:07.016Z,948.9
2022-09-15T05:45:08.752Z,948.9
2022-09-15T05:46:10.831Z,948.9
2022-09-15T05:47:12.506Z,948.9
2022-09-15T05:48:14.301Z,948.9
2022-09-15T05:49:15.837Z,948.9
2022-09-15T05:50:17.502Z,948.9
2022-09-15T05:51:19.044Z,948.8
2022-09-15T05:52:20.630Z,948.9
2022-09-15T05:53:22.541Z,948.8
2022-09-15T05:54:24.178Z,948.9
2022-09-15T05:55:25.794Z,948.8
2022-09-15T05:56:27.366Z,948.8
2022-09-15T05:57:28.996Z,948.8
2022-09-15T05:58:30.721Z,948.8
2022-09-15T05:59:32.355Z,948.8
2022-09-15T06:00:34.246Z,948.8
2022-09-15T06:01:36.249Z,948.8
2022-09-15T06:02:38.261Z,948.7
2022-09-15T06:03:42.987Z,948.7
2022-09-15T06:04:44.625Z,948.7
2022-09-15T06:05:46.151Z,948.7
2022-09-15T06:06:47.692Z,948.6
2022-09-15T06:07:49.251Z,948.6
2022-09-15T06:08:59.615Z,948.6
2022-09-15T06:10:01.782Z,948.6
2022-09-15T06:11:04.034Z,948.7
2022-09-15T06:12:05.871Z,948.7
2022-09-15T06:13:07.458Z,948.7
2022-09-15T06:14:09.092Z,948.7
2022-09-15T06:15:10.702Z,948.6
2022-09-15T06:16:12.699Z,948.7
2022-09-15T06:17:14.588Z,948.7
2022-09-15T06:18:16.340Z,948.7
2022-09-15T06:19:18.207Z,948.7
2022-09-15T06:20:19.730Z,948.8
2022-09-15T06:21:21.884Z,948.8
2022-09-15T06:22:23.415Z,948.9
2022-09-15T06:23:25.484Z,948.9
2022-09-15T06:24:27.050Z,948.9
2022-09-15T06:25:28.659Z,948.9
2022-09-15T06:26:30.665Z,948.9
2022-09-15T06:27:32.289Z,948.9
2022-09-15T06:28:34.227Z,948.8
2022-09-15T06:29:35.890Z,948.8
2022-09-15T06:30:37.494Z,948.8
2022-09-15T06:31:39.499Z,948.8
2022-09-15T06:32:48.545Z,948.8
2022-09-15T06:33:50.335Z,948.6
2022-09-15T06:34:52.043Z,948.6
2022-09-15T06:35:53.589Z,948.6
2022-09-15T06:36:55.192Z,948.6
2022-09-15T06:37:56.882Z,948.6
2022-09-15T06:38:58.622Z,948.6
2022-09-15T06:40:00.547Z,948.7
2022-09-15T06:41:02.256Z,948.7
2022-09-15T06:42:06.256Z,948.7
2022-09-15T06:43:07.879Z,948.7
2022-09-15T06:44:09.529Z,948.7
2022-09-15T06:45:11.118Z,948.7
2022-09-15T06:46:13.192Z,948.6
2022-09-15T06:47:15.271Z,948.6
2022-09-15T06:48:25.550Z,948.6
2022-09-15T06:49:27.219Z,948.6
2022-09-15T06:50:28.864Z,948.7
2022-09-15T06:51:30.501Z,948.7
2022-09-15T06:52:32.046Z,948.7
2022-09-15T06:53:33.692Z,948.8
2022-09-15T06:54:35.300Z,948.7
2022-09-15T06:55:36.819Z,948.7
2022-09-15T06:56:38.828Z,948.7
2022-09-15T06:57:40.361Z,948.7
2022-09-15T06:58:42.383Z,948.8
2022-09-15T06:59:44.385Z,948.7
2022-09-15T07:00:46.016Z,948.7
2022-09-15T07:01:47.922Z,948.8
2022-09-15T07:02:50.277Z,948.8
2022-09-15T07:03:52.386Z,948.8
2022-09-15T07:04:54.192Z,948.8
2022-09-15T07:05:55.877Z,948.9
2022-09-15T07:06:57.541Z,948.9
2022-09-15T07:07:59.181Z,948.9
2022-09-15T07:09:01.915Z,949
2022-09-15T07:10:03.612Z,949
2022-09-15T07:11:05.248Z,948.9
2022-09-15T07:12:06.796Z,949
2022-09-15T07:13:08.399Z,949
2022-09-15T07:14:10.078Z,949.1
2022-09-15T07:15:11.709Z,949.1
2022-09-15T07:16:13.863Z,949.1
2022-09-15T07:17:15.736Z,949.1
2022-09-15T07:18:17.345Z,949.2
2022-09-15T07:19:19.114Z,949.2
2022-09-15T07:20:20.651Z,949.2
2022-09-15T07:21:22.208Z,949.2
2022-09-15T07:22:23.747Z,949.2
2022-09-15T07:23:25.298Z,949.2
2022-09-15T07:24:26.942Z,949.2
2022-09-15T07:25:28.518Z,949.2
2022-09-15T07:26:30.256Z,949.2
2022-09-15T07:27:31.961Z,949.2
2022-09-15T07:28:33.624Z,949.2
2022-09-15T07:29:38.243Z,949.2
2022-09-15T07:30:40.083Z,949.3
2022-09-15T07:31:42.074Z,949.3
2022-09-15T07:32:43.868Z,949.3
2022-09-15T07:33:45.743Z,949.3
2022-09-15T07:34:47.471Z,949.4
2022-09-15T07:35:49.014Z,949.5
2022-09-15T07:36:50.673Z,949.5
2022-09-15T07:37:52.301Z,949.5
2022-09-15T07:38:54.201Z,949.6
2022-09-15T07:39:56.062Z,949.6
2022-09-15T07:40:57.937Z,949.6
2022-09-15T07:41:59.627Z,949.6
2022-09-15T07:43:01.223Z,949.5
2022-09-15T07:44:02.842Z,949.6
2022-09-15T07:45:04.498Z,949.6
2022-09-15T07:46:06.412Z,949.5
2022-09-15T07:47:08.118Z,949.5
2022-09-15T07:48:09.749Z,949.5
2022-09-15T07:49:11.449Z,949.5
2022-09-15T07:50:13.109Z,949.4
2022-09-15T07:51:14.748Z,949.5
2022-09-15T07:52:16.462Z,949.4
2022-09-15T07:53:18.107Z,949.4
2022-09-15T07:54:23.445Z,949.4
2022-09-15T07:55:25.135Z,949.3
2022-09-15T07:56:26.695Z,949.3
2022-09-15T07:57:28.295Z,949.3
2022-09-15T07:58:29.912Z,949.3
2022-09-15T07:59:31.550Z,949.3
2022-09-15T08:00:33.470Z,949.2
2022-09-15T08:01:35.656Z,949.2
2022-09-15T08:02:37.575Z,949.2
2022-09-15T08:03:39.145Z,949.2
2022-09-15T08:04:40.892Z,949.2
2022-09-15T08:05:46.395Z,949.3
2022-09-15T08:06:47.984Z,949.3
2022-09-15T08:07:49.672Z,949.3
2022-09-15T08:09:01.028Z,949.3
2022-09-15T08:10:02.868Z,949.3
2022-09-15T08:11:04.558Z,949.3
2022-09-15T08:12:06.173Z,949.3
2022-09-15T08:13:07.705Z,949.2
2022-09-15T08:14:09.373Z,949.2
2022-09-15T08:15:11.002Z,949.3
2022-09-15T08:16:12.958Z,949.3
2022-09-15T08:17:15.448Z,949.3
2022-09-15T08:18:17.200Z,949.3
2022-09-15T08:19:19.002Z,949.2
2022-09-15T08:20:21.120Z,949.3
2022-09-15T08:21:23.118Z,949.3
2022-09-15T08:22:24.859Z,949.3
2022-09-15T08:23:26.520Z,949.3
2022-09-15T08:24:28.049Z,949.3
2022-09-15T08:25:29.810Z,949.3
2022-09-15T08:26:31.462Z,949.2
2022-09-15T08:27:33.107Z,949.2
2022-09-15T08:28:34.774Z,949.2
2022-09-15T08:29:36.407Z,949.2
2022-09-15T08:30:37.966Z,949.2
2022-09-15T08:31:39.820Z,949.1
2022-09-15T08:32:41.737Z,949
2022-09-15T08:33:46.404Z,949
2022-09-15T08:34:48.019Z,948.9
2022-09-15T08:35:49.785Z,948.9
2022-09-15T08:36:51.577Z,949
2022-09-15T08:37:53.139Z,949
2022-09-15T08:38:54.682Z,949
2022-09-15T08:39:56.564Z,948.9
2022-09-15T08:40:58.254Z,948.9
2022-09-15T08:42:00.009Z,948.9
2022-09-15T08:43:01.643Z,948.9
2022-09-15T08:44:03.402Z,948.9
2022-09-15T08:45:05.050Z,948.9
2022-09-15T08:46:06.823Z,948.8
2022-09-15T08:47:08.647Z,948.8
2022-09-15T08:48:10.393Z,948.9
2022-09-15T08:49:11.965Z,948.9
2022-09-15T08:50:13.568Z,948.9
2022-09-15T08:51:15.451Z,948.9
2022-09-15T08:52:17.184Z,948.9
2022-09-15T08:53:18.823Z,948.9
2022-09-15T08:54:20.375Z,948.8
2022-09-15T08:55:21.985Z,948.8
2022-09-15T08:56:23.569Z,948.8
2022-09-15T08:57:25.250Z,948.8
2022-09-15T08:58:26.868Z,948.8
2022-09-15T08:59:28.455Z,948.8
2022-09-15T09:00:30.071Z,948.9
2022-09-15T09:01:32.143Z,948.8
2022-09-15T09:02:34.283Z,948.8
2022-09-15T09:03:36.239Z,948.8
2022-09-15T09:04:37.967Z,948.8
2022-09-15T09:05:39.591Z,948.8
2022-09-15T09:06:41.311Z,948.7
2022-09-15T09:07:42.883Z,948.7
2022-09-15T09:08:45.085Z,948.6
2022-09-15T09:09:47.019Z,948.6
2022-09-15T09:10:48.705Z,948.6
2022-09-15T09:11:50.262Z,948.7
2022-09-15T09:12:51.821Z,948.7
2022-09-15T09:13:53.787Z,948.7
2022-09-15T09:14:55.487Z,948.7
2022-09-15T09:15:57.446Z,948.7
2022-09-15T09:16:59.249Z,948.7
2022-09-15T09:18:00.909Z,948.7
2022-09-15T09:19:02.531Z,948.7
2022-09-15T09:20:04.198Z,948.6
2022-09-15T09:21:05.827Z,948.6
2022-09-15T09:22:07.585Z,948.6
2022-09-15T09:23:09.191Z,948.6
2022-09-15T09:24:10.832Z,948.6
2022-09-15T09:25:28.737Z,948.6
2022-09-15T09:26:30.406Z,948.5
2022-09-15T09:27:31.945Z,948.5
2022-09-15T09:28:33.545Z,948.5
2022-09-15T09:29:35.257Z,948.5
2022-09-15T09:30:37.041Z,948.4
2022-09-15T09:31:38.844Z,948.4
2022-09-15T09:32:40.383Z,948.4
2022-09-15T09:33:48.513Z,948.4
2022-09-15T09:34:50.615Z,948.4
2022-09-15T09:35:52.209Z,948.4
2022-09-15T09:36:53.823Z,948.4
2022-09-15T09:37:55.612Z,948.4
2022-09-15T09:38:57.330Z,948.3
2022-09-15T09:39:59.162Z,948.3
2022-09-15T09:41:03.268Z,948.3
2022-09-15T09:42:05.051Z,948.2
2022-09-15T09:43:06.779Z,948.2
2022-09-15T09:44:08.321Z,948.2
2022-09-15T09:45:09.951Z,948.2
2022-09-15T09:46:11.902Z,948.3
2022-09-15T09:47:13.582Z,948.2
2022-09-15T09:48:15.431Z,948.2
2022-09-15T09:49:17.083Z,948.2
2022-09-15T09:50:18.807Z,948.2
2022-09-15T09:51:20.804Z,948.2
2022-09-15T09:52:22.425Z,948.2
2022-09-15T09:53:24.180Z,948.2
2022-09-15T09:54:25.903Z,948.2
2022-09-15T09:55:27.546Z,948.2
2022-09-15T09:56:29.438Z,948.2
2022-09-15T09:57:30.982Z,948.2
2022-09-15T09:58:32.540Z,948.2
2022-09-15T09:59:34.230Z,948.2
2022-09-15T10:00:35.849Z,948.2
2022-09-15T10:01:38.286Z,948.2
2022-09-15T10:02:40.201Z,948.2
2022-09-15T10:03:41.833Z,948.3
2022-09-15T10:04:43.756Z,948.2
2022-09-15T10:05:45.502Z,948.2
2022-09-15T10:06:47.223Z,948.2
2022-09-15T10:07:48.943Z,948.1
2022-09-15T10:08:50.898Z,948.1
2022-09-15T10:09:53.031Z,948.2
2022-09-15T10:10:54.639Z,948.1
2022-09-15T10:11:56.218Z,948.1
2022-09-15T10:12:57.870Z,948
2022-09-15T10:13:59.471Z,948
2022-09-15T10:15:01.021Z,948
2022-09-15T10:16:02.805Z,948.1
2022-09-15T10:17:04.666Z,948
2022-09-15T10:18:06.409Z,948
2022-09-15T10:19:07.939Z,948
2022-09-15T10:20:09.492Z,948
2022-09-15T10:21:11.122Z,948
2022-09-15T10:22:12.800Z,948
2022-09-15T10:23:14.577Z,948
2022-09-15T10:24:18.536Z,948.1
2022-09-15T10:25:20.449Z,948.1
2022-09-15T10:26:22.009Z,948.1
2022-09-15T10:27:23.679Z,948.1
2022-09-15T10:28:25.329Z,948.1
2022-09-15T10:29:27.036Z,948.1
2022-09-15T10:30:28.871Z,948.1
2022-09-15T10:31:30.894Z,948
2022-09-15T10:32:32.841Z,948
2022-09-15T10:33:34.481Z,948
2022-09-15T10:34:36.020Z,948
2022-09-15T10:35:37.761Z,948
2022-09-15T10:36:39.299Z,948
2022-09-15T10:37:40.969Z,947.9
2022-09-15T10:38:42.885Z,947.9
2022-09-15T10:39:44.880Z,947.9
2022-09-15T10:40:46.899Z,947.9
2022-09-15T10:41:48.448Z,947.9
2022-09-15T10:42:49.989Z,947.9
2022-09-15T10:43:51.595Z,947.9
2022-09-15T10:44:53.489Z,947.9
2022-09-15T10:45:55.418Z,947.8
2022-09-15T10:46:57.170Z,947.8
2022-09-15T10:47:58.816Z,947.8
2022-09-15T10:49:00.375Z,947.8
2022-09-15T10:50:02.112Z,947.8
2022-09-15T10:51:03.988Z,947.8
2022-09-15T10:52:05.595Z,947.8
2022-09-15T10:53:07.160Z,947.8
2022-09-15T10:54:08.733Z,947.7
2022-09-15T10:55:10.636Z,947.7
2022-09-15T10:56:12.499Z,947.7
2022-09-15T10:57:14.395Z,947.7
2022-09-15T10:58:16.184Z,947.7
2022-09-15T10:59:17.818Z,947.7
2022-09-15T11:00:19.983Z,947.7
2022-09-15T11:01:22.625Z,947.7
2022-09-15T11:02:24.752Z,947.7
2022-09-15T11:03:26.682Z,947.6
2022-09-15T11:04:28.350Z,947.7
2022-09-15T11:05:29.928Z,947.6
2022-09-15T11:06:32.006Z,947.6
2022-09-15T11:07:33.706Z,947.6
2022-09-15T11:08:35.349Z,947.6
2022-09-15T11:09:37.050Z,947.6
2022-09-15T11:10:38.941Z,947.6
2022-09-15T11:11:40.566Z,947.6
2022-09-15T11:12:42.310Z,947.6
2022-09-15T11:13:44.184Z,947.6
2022-09-15T11:14:45.738Z,947.6
2022-09-15T11:15:47.542Z,947.6
2022-09-15T11:16:49.429Z,947.5
2022-09-15T11:17:51.046Z,947.5
2022-09-15T11:18:52.589Z,947.5
2022-09-15T11:19:54.274Z,947.5
2022-09-15T11:20:55.814Z,947.4
2022-09-15T11:21:57.381Z,947.4
2022-09-15T11:22:59.120Z,947.4
2022-09-15T11:24:00.842Z,947.4
2022-09-15T11:25:02.547Z,947.4
2022-09-15T11:26:04.290Z,947.4
2022-09-15T11:27:05.965Z,947.4
2022-09-15T11:28:07.658Z,947.4
2022-09-15T11:29:09.359Z,947.4
2022-09-15T11:30:11.088Z,947.4
2022-09-15T11:31:13.077Z,947.4
2022-09-15T11:32:14.870Z,947.3
2022-09-15T11:33:16.522Z,947.3
2022-09-15T11:34:18.078Z,947.3
2022-09-15T11:35:19.714Z,947.3
2022-09-15T11:36:21.254Z,947.3
2022-09-15T11:37:22.833Z,947.4
2022-09-15T11:38:24.397Z,947.4
2022-09-15T11:39:25.982Z,947.3
2022-09-15T11:40:28.022Z,947.3
2022-09-15T11:41:29.939Z,947.3
2022-09-15T11:42:31.655Z,947.3
2022-09-15T11:43:33.215Z,947.3
2022-09-15T11:44:34.799Z,947.3
2022-09-15T11:45:36.404Z,947.3
2022-09-15T11:46:38.241Z,947.3
2022-09-15T11:47:40.064Z,947.3
2022-09-15T11:48:41.777Z,947.3
2022-09-15T11:49:43.443Z,947.3
2022-09-15T11:50:45.233Z,947.3
2022-09-15T11:51:46.907Z,947.2
2022-09-15T11:52:48.508Z,947.2
2022-09-15T11:53:50.064Z,947.2
2022-09-15T11:54:51.704Z,947.2
2022-09-15T11:55:53.575Z,947.2
2022-09-15T11:56:55.223Z,947.2
2022-09-15T11:57:56.942Z,947.2
2022-09-15T11:58:58.654Z,947.2
2022-09-15T12:00:00.302Z,947.1
2022-09-15T12:01:01.970Z,947.1
2022-09-15T12:02:03.989Z,947
2022-09-15T12:03:06.128Z,947
2022-09-15T12:04:07.911Z,947
2022-09-15T12:05:09.712Z,947
2022-09-15T12:06:11.381Z,947
2022-09-15T12:07:15.100Z,947
2022-09-15T12:08:16.690Z,947
2022-09-15T12:09:18.446Z,947
2022-09-15T12:10:20.076Z,947
2022-09-15T12:11:21.809Z,946.9
2022-09-15T12:12:31.389Z,946.9
2022-09-15T12:13:35.839Z,946.8
2022-09-15T12:14:37.399Z,946.8
2022-09-15T12:15:39.380Z,946.8
2022-09-15T12:16:41.058Z,946.8
2022-09-15T12:17:42.641Z,946.8
2022-09-15T12:18:47.373Z,946.7
2022-09-15T12:19:49.210Z,946.7
2022-09-15T12:20:50.833Z,946.7
2022-09-15T12:21:52.604Z,946.7
2022-09-15T12:22:55.389Z,946.7
2022-09-15T12:23:56.914Z,946.6
2022-09-15T12:25:01.769Z,946.6
2022-09-15T12:26:03.499Z,946.6
2022-09-15T12:27:05.241Z,946.6
2022-09-15T12:28:06.996Z,946.6
2022-09-15T12:29:08.620Z,946.6
2022-09-15T12:30:10.205Z,946.6
2022-09-15T12:31:12.144Z,946.6
2022-09-15T12:32:13.987Z,946.6
2022-09-15T12:33:15.637Z,946.6
2022-09-15T12:34:17.182Z,946.6
2022-09-15T12:35:18.821Z,946.6
2022-09-15T12:36:20.552Z,946.6
2022-09-15T12:37:22.374Z,946.6
2022-09-15T12:38:24.469Z,946.5
2022-09-15T12:39:26.417Z,946.5
2022-09-15T12:40:28.744Z,946.5
2022-09-15T12:41:30.856Z,946.5
2022-09-15T12:42:33.635Z,946.4
2022-09-15T12:43:35.564Z,946.4
2022-09-15T12:44:37.709Z,946.5
2022-09-15T12:45:39.579Z,946.4
2022-09-15T12:46:41.670Z,946.4
2022-09-15T12:47:43.669Z,946.4
2022-09-15T12:48:47.973Z,946.4
2022-09-15T12:49:49.895Z,946.3
2022-09-15T12:50:51.777Z,946.3
2022-09-15T12:51:53.628Z,946.3
2022-09-15T12:52:55.368Z,946.3
2022-09-15T12:53:57.221Z,946.3
2022-09-15T12:54:58.885Z,946.3
2022-09-15T12:56:00.524Z,946.3
2022-09-15T12:57:02.198Z,946.3
2022-09-15T12:58:04.003Z,946.3
2022-09-15T12:59:07.499Z,946.3
2022-09-15T13:00:09.251Z,946.3
2022-09-15T13:01:19.664Z,946.3
2022-09-15T13:02:21.909Z,946.4
2022-09-15T13:03:24.214Z,946.3
2022-09-15T13:04:25.949Z,946.3
2022-09-15T13:05:27.490Z,946.3
2022-09-15T13:06:29.261Z,946.3
2022-09-15T13:07:30.930Z,946.3
2022-09-15T13:08:32.610Z,946.3
2022-09-15T13:09:34.395Z,946.2
2022-09-15T13:10:35.940Z,946.2
2022-09-15T13:11:38.498Z,946.2
2022-09-15T13:12:40.438Z,946.2
2022-09-15T13:13:42.407Z,946.2
2022-09-15T13:14:44.258Z,946.2
2022-09-15T13:15:46.212Z,946.2
2022-09-15T13:16:48.025Z,946.2
2022-09-15T13:17:49.608Z,946.2
2022-09-15T13:18:51.346Z,946.2
2022-09-15T13:19:52.861Z,946.2
2022-09-15T13:20:54.495Z,946.2
2022-09-15T13:21:59.051Z,946.2
2022-09-15T13:23:00.637Z,946.2
2022-09-15T13:24:02.359Z,946.2